sensor_id;sensor_type;location;lat;lon;timestamp;pressure;altitude;pressure_sealevel;temperature
44429;BMP180;30134;47.866;-4.222;2022-10-31T00:01:19;101633.00;;;26.70
44429;BMP180;30134;47.866;-4.222;2022-10-31T00:03:45;101634.00;;;26.60
44429;BMP180;30134;47.866;-4.222;2022-10-31T00:06:11;101636.00;;;26.70
44429;BMP180;30134;47.866;-4.222;2022-10-31T00:08:38;101628.00;;;26.70
44429;BMP180;30134;47.866;-4.222;2022-10-31T00:11:09;101617.00;;;26.70
44429;BMP180;30134;47.866;-4.222;2022-10-31T00:13:35;101617.00;;;26.70
44429;BMP180;30134;47.866;-4.222;2022-10-31T00:16:01;101616.00;;;26.70
44429;BMP180;30134;47.866;-4.222;2022-10-31T00:18:27;101607.00;;;26.70
44429;BMP180;30134;47.866;-4.222;2022-10-31T00:21:03;101603.00;;;26.70
44429;BMP180;30134;47.866;-4.222;2022-10-31T00:23:29;101608.00;;;26.70
44429;BMP180;30134;47.866;-4.222;2022-10-31T00:26:01;101595.00;;;26.70
44429;BMP180;30134;47.866;-4.222;2022-10-31T00:28:27;101594.00;;;26.70
44429;BMP180;30134;47.866;-4.222;2022-10-31T00:30:53;101596.00;;;26.70
44429;BMP180;30134;47.866;-4.222;2022-10-31T00:33:19;101597.00;;;26.70
44429;BMP180;30134;47.866;-4.222;2022-10-31T00:35:51;101596.00;;;26.70
44429;BMP180;30134;47.866;-4.222;2022-10-31T00:38:17;101592.00;;;26.70
44429;BMP180;30134;47.866;-4.222;2022-10-31T00:40:43;101594.00;;;26.70
44429;BMP180;30134;47.866;-4.222;2022-10-31T00:43:09;101589.00;;;26.70
44429;BMP180;30134;47.866;-4.222;2022-10-31T00:45:34;101589.00;;;26.70
44429;BMP180;30134;47.866;-4.222;2022-10-31T00:48:00;101582.00;;;26.70
44429;BMP180;30134;47.866;-4.222;2022-10-31T00:50:26;101586.00;;;26.70
44429;BMP180;30134;47.866;-4.222;2022-10-31T00:52:52;101585.00;;;26.70
44429;BMP180;30134;47.866;-4.222;2022-10-31T00:55:18;101583.00;;;26.70
44429;BMP180;30134;47.866;-4.222;2022-10-31T00:57:46;101582.00;;;26.70
44429;BMP180;30134;47.866;-4.222;2022-10-31T01:00:14;101576.00;;;26.70
44429;BMP180;30134;47.866;-4.222;2022-10-31T01:02:40;101576.00;;;26.70
44429;BMP180;30134;47.866;-4.222;2022-10-31T01:05:06;101574.00;;;26.70
44429;BMP180;30134;47.866;-4.222;2022-10-31T01:07:36;101568.00;;;26.70
44429;BMP180;30134;47.866;-4.222;2022-10-31T01:10:04;101567.00;;;26.70
44429;BMP180;30134;47.866;-4.222;2022-10-31T01:12:44;101564.00;;;26.70
44429;BMP180;30134;47.866;-4.222;2022-10-31T01:15:14;101560.00;;;26.70
44429;BMP180;30134;47.866;-4.222;2022-10-31T01:17:40;101561.00;;;26.70
44429;BMP180;30134;47.866;-4.222;2022-10-31T01:20:09;101559.00;;;26.70
44429;BMP180;30134;47.866;-4.222;2022-10-31T01:22:36;101552.00;;;26.70
44429;BMP180;30134;47.866;-4.222;2022-10-31T01:25:03;101556.00;;;26.70
44429;BMP180;30134;47.866;-4.222;2022-10-31T01:27:30;101552.00;;;26.70
44429;BMP180;30134;47.866;-4.222;2022-10-31T01:29:56;101552.00;;;26.70
44429;BMP180;30134;47.866;-4.222;2022-10-31T01:32:22;101551.00;;;26.70
44429;BMP180;30134;47.866;-4.222;2022-10-31T01:34:48;101549.00;;;26.50
44429;BMP180;30134;47.866;-4.222;2022-10-31T01:37:14;101538.00;;;26.30
44429;BMP180;30134;47.866;-4.222;2022-10-31T01:39:41;101536.00;;;26.10
44429;BMP180;30134;47.866;-4.222;2022-10-31T01:42:15;101526.00;;;26.00
44429;BMP180;30134;47.866;-4.222;2022-10-31T01:44:50;101536.00;;;25.80
44429;BMP180;30134;47.866;-4.222;2022-10-31T01:47:39;101526.00;;;25.70
44429;BMP180;30134;47.866;-4.222;2022-10-31T01:50:18;101534.00;;;25.50
44429;BMP180;30134;47.866;-4.222;2022-10-31T01:52:47;101524.00;;;25.50
44429;BMP180;30134;47.866;-4.222;2022-10-31T01:55:23;101514.00;;;25.30
44429;BMP180;30134;47.866;-4.222;2022-10-31T01:57:53;101515.00;;;25.30
44429;BMP180;30134;47.866;-4.222;2022-10-31T02:00:21;101512.00;;;25.20
44429;BMP180;30134;47.866;-4.222;2022-10-31T02:02:49;101512.00;;;25.10
44429;BMP180;30134;47.866;-4.222;2022-10-31T02:05:24;101511.00;;;25.10
44429;BMP180;30134;47.866;-4.222;2022-10-31T02:08:01;101512.00;;;25.00
44429;BMP180;30134;47.866;-4.222;2022-10-31T02:10:31;101505.00;;;25.00
44429;BMP180;30134;47.866;-4.222;2022-10-31T02:13:02;101503.00;;;24.90
44429;BMP180;30134;47.866;-4.222;2022-10-31T02:15:30;101493.00;;;24.80
44429;BMP180;30134;47.866;-4.222;2022-10-31T02:17:56;101497.00;;;24.80
44429;BMP180;30134;47.866;-4.222;2022-10-31T02:20:25;101496.00;;;24.80
44429;BMP180;30134;47.866;-4.222;2022-10-31T02:29:36;101484.00;;;24.60
44429;BMP180;30134;47.866;-4.222;2022-10-31T02:32:16;101485.00;;;24.60
44429;BMP180;30134;47.866;-4.222;2022-10-31T02:35:17;101481.00;;;24.50
44429;BMP180;30134;47.866;-4.222;2022-10-31T02:40:56;101465.00;;;24.50
44429;BMP180;30134;47.866;-4.222;2022-10-31T02:46:57;101451.00;;;24.40
44429;BMP180;30134;47.866;-4.222;2022-10-31T02:52:37;101433.00;;;24.40
44429;BMP180;30134;47.866;-4.222;2022-10-31T02:58:10;101432.00;;;24.30
44429;BMP180;30134;47.866;-4.222;2022-10-31T03:07:03;101424.00;;;24.20
44429;BMP180;30134;47.866;-4.222;2022-10-31T03:10:02;101422.00;;;24.20
44429;BMP180;30134;47.866;-4.222;2022-10-31T03:12:44;101413.00;;;24.20
44429;BMP180;30134;47.866;-4.222;2022-10-31T03:15:32;101406.00;;;24.20
44429;BMP180;30134;47.866;-4.222;2022-10-31T03:18:29;101400.00;;;24.20
44429;BMP180;30134;47.866;-4.222;2022-10-31T03:21:12;101394.00;;;24.20
44429;BMP180;30134;47.866;-4.222;2022-10-31T03:23:41;101391.00;;;24.20
44429;BMP180;30134;47.866;-4.222;2022-10-31T03:26:09;101386.00;;;24.10
44429;BMP180;30134;47.866;-4.222;2022-10-31T03:28:57;101380.00;;;24.10
44429;BMP180;30134;47.866;-4.222;2022-10-31T03:31:30;101380.00;;;24.10
44429;BMP180;30134;47.866;-4.222;2022-10-31T03:34:00;101375.00;;;24.10
44429;BMP180;30134;47.866;-4.222;2022-10-31T03:36:30;101373.00;;;24.10
44429;BMP180;30134;47.866;-4.222;2022-10-31T03:39:01;101374.00;;;24.10
44429;BMP180;30134;47.866;-4.222;2022-10-31T03:41:34;101361.00;;;24.10
44429;BMP180;30134;47.866;-4.222;2022-10-31T03:44:09;101361.00;;;24.10
44429;BMP180;30134;47.866;-4.222;2022-10-31T03:46:36;101356.00;;;24.00
44429;BMP180;30134;47.866;-4.222;2022-10-31T03:49:02;101356.00;;;24.00
44429;BMP180;30134;47.866;-4.222;2022-10-31T03:57:03;101340.00;;;24.00
44429;BMP180;30134;47.866;-4.222;2022-10-31T03:59:43;101342.00;;;24.00
44429;BMP180;30134;47.866;-4.222;2022-10-31T04:02:16;101330.00;;;24.00
44429;BMP180;30134;47.866;-4.222;2022-10-31T04:04:44;101331.00;;;24.00
44429;BMP180;30134;47.866;-4.222;2022-10-31T04:07:11;101323.00;;;23.90
44429;BMP180;30134;47.866;-4.222;2022-10-31T04:09:41;101323.00;;;23.90
44429;BMP180;30134;47.866;-4.222;2022-10-31T04:12:09;101323.00;;;23.90
44429;BMP180;30134;47.866;-4.222;2022-10-31T04:14:39;101319.00;;;23.90
44429;BMP180;30134;47.866;-4.222;2022-10-31T04:17:14;101321.00;;;23.90
44429;BMP180;30134;47.866;-4.222;2022-10-31T04:19:41;101318.00;;;23.90
44429;BMP180;30134;47.866;-4.222;2022-10-31T04:22:07;101316.00;;;23.90
44429;BMP180;30134;47.866;-4.222;2022-10-31T04:24:33;101311.00;;;23.90
44429;BMP180;30134;47.866;-4.222;2022-10-31T04:26:59;101322.00;;;23.90
44429;BMP180;30134;47.866;-4.222;2022-10-31T04:29:25;101322.00;;;23.80
44429;BMP180;30134;47.866;-4.222;2022-10-31T04:31:50;101320.00;;;23.80
44429;BMP180;30134;47.866;-4.222;2022-10-31T04:34:16;101311.00;;;23.80
44429;BMP180;30134;47.866;-4.222;2022-10-31T04:36:42;101310.00;;;23.80
44429;BMP180;30134;47.866;-4.222;2022-10-31T04:39:08;101312.00;;;23.80
44429;BMP180;30134;47.866;-4.222;2022-10-31T04:41:34;101311.00;;;23.80
44429;BMP180;30134;47.866;-4.222;2022-10-31T04:44:00;101306.00;;;23.80
44429;BMP180;30134;47.866;-4.222;2022-10-31T04:46:26;101303.00;;;23.80
44429;BMP180;30134;47.866;-4.222;2022-10-31T04:48:52;101300.00;;;23.80
44429;BMP180;30134;47.866;-4.222;2022-10-31T04:51:17;101297.00;;;23.80
44429;BMP180;30134;47.866;-4.222;2022-10-31T04:53:44;101293.00;;;23.80
44429;BMP180;30134;47.866;-4.222;2022-10-31T04:56:10;101294.00;;;23.80
44429;BMP180;30134;47.866;-4.222;2022-10-31T04:58:36;101282.00;;;23.80
44429;BMP180;30134;47.866;-4.222;2022-10-31T05:01:02;101273.00;;;23.70
44429;BMP180;30134;47.866;-4.222;2022-10-31T05:03:27;101266.00;;;23.70
44429;BMP180;30134;47.866;-4.222;2022-10-31T05:05:53;101264.00;;;23.70
44429;BMP180;30134;47.866;-4.222;2022-10-31T05:08:20;101257.00;;;23.70
44429;BMP180;30134;47.866;-4.222;2022-10-31T05:10:46;101249.00;;;23.70
44429;BMP180;30134;47.866;-4.222;2022-10-31T05:13:12;101239.00;;;23.70
44429;BMP180;30134;47.866;-4.222;2022-10-31T05:15:38;101235.00;;;23.70
44429;BMP180;30134;47.866;-4.222;2022-10-31T05:18:04;101222.00;;;23.70
44429;BMP180;30134;47.866;-4.222;2022-10-31T05:20:30;101221.00;;;23.70
44429;BMP180;30134;47.866;-4.222;2022-10-31T05:22:58;101224.00;;;23.70
44429;BMP180;30134;47.866;-4.222;2022-10-31T05:25:27;101217.00;;;23.70
44429;BMP180;30134;47.866;-4.222;2022-10-31T05:27:54;101209.00;;;23.70
44429;BMP180;30134;47.866;-4.222;2022-10-31T05:30:25;101205.00;;;23.70
44429;BMP180;30134;47.866;-4.222;2022-10-31T05:32:51;101207.00;;;23.70
44429;BMP180;30134;47.866;-4.222;2022-10-31T05:35:30;101199.00;;;23.70
44429;BMP180;30134;47.866;-4.222;2022-10-31T05:37:57;101202.00;;;23.60
44429;BMP180;30134;47.866;-4.222;2022-10-31T05:40:27;101196.00;;;23.60
44429;BMP180;30134;47.866;-4.222;2022-10-31T05:42:55;101194.00;;;23.60
44429;BMP180;30134;47.866;-4.222;2022-10-31T05:45:22;101196.00;;;23.60
44429;BMP180;30134;47.866;-4.222;2022-10-31T05:47:57;101199.00;;;23.60
44429;BMP180;30134;47.866;-4.222;2022-10-31T05:50:25;101190.00;;;23.60
44429;BMP180;30134;47.866;-4.222;2022-10-31T05:53:02;101184.00;;;23.60
44429;BMP180;30134;47.866;-4.222;2022-10-31T05:55:29;101166.00;;;23.60
44429;BMP180;30134;47.866;-4.222;2022-10-31T05:57:56;101165.00;;;23.60
44429;BMP180;30134;47.866;-4.222;2022-10-31T06:00:23;101166.00;;;23.60
44429;BMP180;30134;47.866;-4.222;2022-10-31T06:02:56;101158.00;;;23.60
44429;BMP180;30134;47.866;-4.222;2022-10-31T06:05:22;101156.00;;;23.60
44429;BMP180;30134;47.866;-4.222;2022-10-31T06:07:48;101148.00;;;23.50
44429;BMP180;30134;47.866;-4.222;2022-10-31T06:10:14;101155.00;;;23.60
44429;BMP180;30134;47.866;-4.222;2022-10-31T06:12:41;101142.00;;;23.50
44429;BMP180;30134;47.866;-4.222;2022-10-31T06:15:08;101136.00;;;23.50
44429;BMP180;30134;47.866;-4.222;2022-10-31T06:17:35;101131.00;;;23.50
44429;BMP180;30134;47.866;-4.222;2022-10-31T06:20:02;101134.00;;;23.50
44429;BMP180;30134;47.866;-4.222;2022-10-31T06:22:32;101128.00;;;23.50
44429;BMP180;30134;47.866;-4.222;2022-10-31T06:24:58;101117.00;;;23.50
44429;BMP180;30134;47.866;-4.222;2022-10-31T06:27:25;101124.00;;;23.50
44429;BMP180;30134;47.866;-4.222;2022-10-31T06:29:51;101125.00;;;23.50
44429;BMP180;30134;47.866;-4.222;2022-10-31T06:32:18;101122.00;;;23.50
44429;BMP180;30134;47.866;-4.222;2022-10-31T06:34:44;101121.00;;;23.50
44429;BMP180;30134;47.866;-4.222;2022-10-31T06:37:14;101126.00;;;23.50
44429;BMP180;30134;47.866;-4.222;2022-10-31T06:39:40;101118.00;;;23.50
44429;BMP180;30134;47.866;-4.222;2022-10-31T06:42:08;101105.00;;;23.50
44429;BMP180;30134;47.866;-4.222;2022-10-31T06:44:34;101101.00;;;23.50
44429;BMP180;30134;47.866;-4.222;2022-10-31T06:47:00;101094.00;;;23.50
44429;BMP180;30134;47.866;-4.222;2022-10-31T06:49:26;101088.00;;;23.50
44429;BMP180;30134;47.866;-4.222;2022-10-31T06:51:52;101078.00;;;23.50
44429;BMP180;30134;47.866;-4.222;2022-10-31T06:54:18;101095.00;;;23.50
44429;BMP180;30134;47.866;-4.222;2022-10-31T06:56:46;101075.00;;;23.50
44429;BMP180;30134;47.866;-4.222;2022-10-31T06:59:15;101068.00;;;23.40
44429;BMP180;30134;47.866;-4.222;2022-10-31T07:01:44;101074.00;;;23.40
44429;BMP180;30134;47.866;-4.222;2022-10-31T07:04:10;101067.00;;;23.50
44429;BMP180;30134;47.866;-4.222;2022-10-31T07:06:37;101064.00;;;23.40
44429;BMP180;30134;47.866;-4.222;2022-10-31T07:09:04;101057.00;;;23.40
44429;BMP180;30134;47.866;-4.222;2022-10-31T07:11:30;101059.00;;;23.40
44429;BMP180;30134;47.866;-4.222;2022-10-31T07:13:56;101060.00;;;23.40
44429;BMP180;30134;47.866;-4.222;2022-10-31T07:16:22;101054.00;;;23.40
44429;BMP180;30134;47.866;-4.222;2022-10-31T07:18:48;101054.00;;;23.40
44429;BMP180;30134;47.866;-4.222;2022-10-31T07:21:13;101064.00;;;23.40
44429;BMP180;30134;47.866;-4.222;2022-10-31T07:23:39;101057.00;;;23.40
44429;BMP180;30134;47.866;-4.222;2022-10-31T07:26:05;101057.00;;;23.40
44429;BMP180;30134;47.866;-4.222;2022-10-31T07:28:31;101058.00;;;23.40
44429;BMP180;30134;47.866;-4.222;2022-10-31T07:30:57;101052.00;;;23.40
44429;BMP180;30134;47.866;-4.222;2022-10-31T07:33:24;101046.00;;;23.40
44429;BMP180;30134;47.866;-4.222;2022-10-31T07:35:52;101038.00;;;23.40
44429;BMP180;30134;47.866;-4.222;2022-10-31T07:38:18;101029.00;;;23.40
44429;BMP180;30134;47.866;-4.222;2022-10-31T07:40:51;101023.00;;;23.40
44429;BMP180;30134;47.866;-4.222;2022-10-31T07:43:18;101029.00;;;23.40
44429;BMP180;30134;47.866;-4.222;2022-10-31T07:45:53;101018.00;;;23.40
44429;BMP180;30134;47.866;-4.222;2022-10-31T07:48:19;101023.00;;;23.40
44429;BMP180;30134;47.866;-4.222;2022-10-31T07:50:45;101020.00;;;23.40
44429;BMP180;30134;47.866;-4.222;2022-10-31T07:53:13;101017.00;;;23.30
44429;BMP180;30134;47.866;-4.222;2022-10-31T07:55:39;101026.00;;;23.40
44429;BMP180;30134;47.866;-4.222;2022-10-31T07:58:15;101026.00;;;23.30
44429;BMP180;30134;47.866;-4.222;2022-10-31T08:00:45;101022.00;;;23.30
44429;BMP180;30134;47.866;-4.222;2022-10-31T08:03:17;101015.00;;;23.30
44429;BMP180;30134;47.866;-4.222;2022-10-31T08:05:43;101013.00;;;23.30
44429;BMP180;30134;47.866;-4.222;2022-10-31T08:08:13;101007.00;;;23.30
44429;BMP180;30134;47.866;-4.222;2022-10-31T08:10:39;100993.00;;;23.30
44429;BMP180;30134;47.866;-4.222;2022-10-31T08:13:12;100991.00;;;23.30
44429;BMP180;30134;47.866;-4.222;2022-10-31T08:15:38;100990.00;;;23.30
44429;BMP180;30134;47.866;-4.222;2022-10-31T08:18:13;100986.00;;;23.30
44429;BMP180;30134;47.866;-4.222;2022-10-31T08:20:41;100983.00;;;23.30
44429;BMP180;30134;47.866;-4.222;2022-10-31T08:23:10;100975.00;;;23.30
44429;BMP180;30134;47.866;-4.222;2022-10-31T08:25:36;100972.00;;;23.30
44429;BMP180;30134;47.866;-4.222;2022-10-31T08:28:03;100955.00;;;23.30
44429;BMP180;30134;47.866;-4.222;2022-10-31T08:30:32;100966.00;;;23.30
44429;BMP180;30134;47.866;-4.222;2022-10-31T08:33:13;100963.00;;;23.30
44429;BMP180;30134;47.866;-4.222;2022-10-31T08:35:39;100956.00;;;23.30
44429;BMP180;30134;47.866;-4.222;2022-10-31T08:38:08;100957.00;;;23.30
44429;BMP180;30134;47.866;-4.222;2022-10-31T08:40:35;100954.00;;;23.30
44429;BMP180;30134;47.866;-4.222;2022-10-31T08:43:10;100951.00;;;23.30
44429;BMP180;30134;47.866;-4.222;2022-10-31T08:45:37;100957.00;;;23.30
44429;BMP180;30134;47.866;-4.222;2022-10-31T08:48:06;100946.00;;;23.30
44429;BMP180;30134;47.866;-4.222;2022-10-31T08:50:34;100948.00;;;23.30
44429;BMP180;30134;47.866;-4.222;2022-10-31T08:53:11;100938.00;;;23.30
44429;BMP180;30134;47.866;-4.222;2022-10-31T08:55:39;100939.00;;;23.30
44429;BMP180;30134;47.866;-4.222;2022-10-31T08:58:09;100934.00;;;23.30
44429;BMP180;30134;47.866;-4.222;2022-10-31T09:00:35;100927.00;;;23.30
44429;BMP180;30134;47.866;-4.222;2022-10-31T09:03:06;100930.00;;;23.30
44429;BMP180;30134;47.866;-4.222;2022-10-31T09:05:34;100913.00;;;23.30
44429;BMP180;30134;47.866;-4.222;2022-10-31T09:08:03;100917.00;;;23.30
44429;BMP180;30134;47.866;-4.222;2022-10-31T09:10:31;100908.00;;;23.30
44429;BMP180;30134;47.866;-4.222;2022-10-31T09:13:03;100902.00;;;23.30
44429;BMP180;30134;47.866;-4.222;2022-10-31T09:15:34;100892.00;;;23.30
44429;BMP180;30134;47.866;-4.222;2022-10-31T09:18:00;100892.00;;;23.30
44429;BMP180;30134;47.866;-4.222;2022-10-31T09:20:30;100890.00;;;23.30
44429;BMP180;30134;47.866;-4.222;2022-10-31T09:23:06;100888.00;;;23.30
44429;BMP180;30134;47.866;-4.222;2022-10-31T09:25:34;100871.00;;;23.30
44429;BMP180;30134;47.866;-4.222;2022-10-31T09:28:02;100870.00;;;23.20
44429;BMP180;30134;47.866;-4.222;2022-10-31T09:30:31;100859.00;;;23.30
44429;BMP180;30134;47.866;-4.222;2022-10-31T09:32:59;100872.00;;;23.30
44429;BMP180;30134;47.866;-4.222;2022-10-31T09:35:26;100859.00;;;23.20
44429;BMP180;30134;47.866;-4.222;2022-10-31T09:37:57;100859.00;;;23.20
44429;BMP180;30134;47.866;-4.222;2022-10-31T09:46:34;100838.00;;;23.20
44429;BMP180;30134;47.866;-4.222;2022-10-31T09:52:36;100822.00;;;23.20
44429;BMP180;30134;47.866;-4.222;2022-10-31T09:55:44;100821.00;;;23.20
44429;BMP180;30134;47.866;-4.222;2022-10-31T09:58:20;100814.00;;;23.30
44429;BMP180;30134;47.866;-4.222;2022-10-31T10:00:48;100810.00;;;23.30
44429;BMP180;30134;47.866;-4.222;2022-10-31T10:03:54;100810.00;;;23.40
44429;BMP180;30134;47.866;-4.222;2022-10-31T10:06:20;100802.00;;;23.40
44429;BMP180;30134;47.866;-4.222;2022-10-31T10:08:47;100800.00;;;23.40
44429;BMP180;30134;47.866;-4.222;2022-10-31T10:15:20;100786.00;;;23.40
44429;BMP180;30134;47.866;-4.222;2022-10-31T10:25:40;100770.00;;;23.50
44429;BMP180;30134;47.866;-4.222;2022-10-31T10:28:26;100772.00;;;23.50
44429;BMP180;30134;47.866;-4.222;2022-10-31T10:31:16;100767.00;;;23.50
44429;BMP180;30134;47.866;-4.222;2022-10-31T10:36:30;100759.00;;;23.50
44429;BMP180;30134;47.866;-4.222;2022-10-31T10:39:18;100752.00;;;23.50
44429;BMP180;30134;47.866;-4.222;2022-10-31T10:41:49;100749.00;;;23.50
44429;BMP180;30134;47.866;-4.222;2022-10-31T10:44:40;100739.00;;;23.50
44429;BMP180;30134;47.866;-4.222;2022-10-31T10:47:39;100733.00;;;23.50
44429;BMP180;30134;47.866;-4.222;2022-10-31T10:50:16;100732.00;;;23.50
44429;BMP180;30134;47.866;-4.222;2022-10-31T10:56:15;100722.00;;;23.60
44429;BMP180;30134;47.866;-4.222;2022-10-31T10:58:42;100712.00;;;23.50
44429;BMP180;30134;47.866;-4.222;2022-10-31T11:01:14;100708.00;;;23.60
44429;BMP180;30134;47.866;-4.222;2022-10-31T11:03:41;100693.00;;;23.60
44429;BMP180;30134;47.866;-4.222;2022-10-31T11:06:23;100681.00;;;23.60
44429;BMP180;30134;47.866;-4.222;2022-10-31T11:08:53;100681.00;;;23.60
44429;BMP180;30134;47.866;-4.222;2022-10-31T11:11:29;100679.00;;;23.60
44429;BMP180;30134;47.866;-4.222;2022-10-31T11:14:13;100673.00;;;23.60
44429;BMP180;30134;47.866;-4.222;2022-10-31T11:16:50;100671.00;;;23.60
44429;BMP180;30134;47.866;-4.222;2022-10-31T11:19:26;100662.00;;;23.60
44429;BMP180;30134;47.866;-4.222;2022-10-31T11:21:53;100654.00;;;23.60
44429;BMP180;30134;47.866;-4.222;2022-10-31T11:24:23;100645.00;;;23.60
44429;BMP180;30134;47.866;-4.222;2022-10-31T11:26:51;100641.00;;;23.60
44429;BMP180;30134;47.866;-4.222;2022-10-31T11:29:28;100623.00;;;23.60
44429;BMP180;30134;47.866;-4.222;2022-10-31T11:31:58;100616.00;;;23.60
44429;BMP180;30134;47.866;-4.222;2022-10-31T11:34:37;100616.00;;;23.60
44429;BMP180;30134;47.866;-4.222;2022-10-31T11:37:15;100603.00;;;23.60
44429;BMP180;30134;47.866;-4.222;2022-10-31T11:39:46;100594.00;;;23.60
44429;BMP180;30134;47.866;-4.222;2022-10-31T11:42:24;100594.00;;;23.60
44429;BMP180;30134;47.866;-4.222;2022-10-31T11:44:51;100581.00;;;23.60
44429;BMP180;30134;47.866;-4.222;2022-10-31T11:47:29;100570.00;;;23.60
44429;BMP180;30134;47.866;-4.222;2022-10-31T11:50:08;100572.00;;;23.60
44429;BMP180;30134;47.866;-4.222;2022-10-31T11:52:38;100569.00;;;23.70
44429;BMP180;30134;47.866;-4.222;2022-10-31T11:55:29;100569.00;;;23.70
44429;BMP180;30134;47.866;-4.222;2022-10-31T11:57:56;100559.00;;;23.80
44429;BMP180;30134;47.866;-4.222;2022-10-31T12:01:20;100553.00;;;23.90
44429;BMP180;30134;47.866;-4.222;2022-10-31T12:05:58;100554.00;;;24.00
44429;BMP180;30134;47.866;-4.222;2022-10-31T12:08:31;100544.00;;;24.00
44429;BMP180;30134;47.866;-4.222;2022-10-31T12:11:27;100538.00;;;24.10
44429;BMP180;30134;47.866;-4.222;2022-10-31T12:19:38;100526.00;;;24.20
44429;BMP180;30134;47.866;-4.222;2022-10-31T12:25:23;100520.00;;;24.30
44429;BMP180;30134;47.866;-4.222;2022-10-31T12:31:28;100511.00;;;24.30
44429;BMP180;30134;47.866;-4.222;2022-10-31T12:34:32;100505.00;;;24.40
44429;BMP180;30134;47.866;-4.222;2022-10-31T12:37:25;100498.00;;;24.40
44429;BMP180;30134;47.866;-4.222;2022-10-31T13:02:10;100452.00;;;24.90
44429;BMP180;30134;47.866;-4.222;2022-10-31T13:05:03;100441.00;;;24.90
44429;BMP180;30134;47.866;-4.222;2022-10-31T13:07:56;100435.00;;;24.90
44429;BMP180;30134;47.866;-4.222;2022-10-31T13:10:32;100430.00;;;25.00
44429;BMP180;30134;47.866;-4.222;2022-10-31T13:13:42;100426.00;;;25.00
44429;BMP180;30134;47.866;-4.222;2022-10-31T13:16:17;100426.00;;;25.10
44429;BMP180;30134;47.866;-4.222;2022-10-31T13:18:55;100424.00;;;25.10
44429;BMP180;30134;47.866;-4.222;2022-10-31T13:22:05;100415.00;;;25.10
44429;BMP180;30134;47.866;-4.222;2022-10-31T13:24:36;100418.00;;;25.10
44429;BMP180;30134;47.866;-4.222;2022-10-31T13:27:21;100413.00;;;25.20
44429;BMP180;30134;47.866;-4.222;2022-10-31T13:30:17;100405.00;;;25.20
44429;BMP180;30134;47.866;-4.222;2022-10-31T13:32:46;100403.00;;;25.30
44429;BMP180;30134;47.866;-4.222;2022-10-31T13:35:25;100398.00;;;25.30
44429;BMP180;30134;47.866;-4.222;2022-10-31T13:38:16;100388.00;;;25.30
44429;BMP180;30134;47.866;-4.222;2022-10-31T13:41:11;100385.00;;;25.30
44429;BMP180;30134;47.866;-4.222;2022-10-31T13:44:03;100380.00;;;25.40
44429;BMP180;30134;47.866;-4.222;2022-10-31T13:48:57;100375.00;;;25.40
44429;BMP180;30134;47.866;-4.222;2022-10-31T13:51:34;100373.00;;;25.50
44429;BMP180;30134;47.866;-4.222;2022-10-31T13:54:21;100371.00;;;25.50
44429;BMP180;30134;47.866;-4.222;2022-10-31T13:56:53;100374.00;;;25.50
44429;BMP180;30134;47.866;-4.222;2022-10-31T13:59:22;100371.00;;;25.50
44429;BMP180;30134;47.866;-4.222;2022-10-31T14:01:53;100365.00;;;25.60
44429;BMP180;30134;47.866;-4.222;2022-10-31T14:04:24;100361.00;;;25.60
44429;BMP180;30134;47.866;-4.222;2022-10-31T14:07:10;100359.00;;;25.60
44429;BMP180;30134;47.866;-4.222;2022-10-31T14:10:03;100357.00;;;25.60
44429;BMP180;30134;47.866;-4.222;2022-10-31T14:12:41;100345.00;;;25.70
44429;BMP180;30134;47.866;-4.222;2022-10-31T14:15:24;100331.00;;;25.70
44429;BMP180;30134;47.866;-4.222;2022-10-31T14:18:05;100332.00;;;25.70
44429;BMP180;30134;47.866;-4.222;2022-10-31T14:20:40;100323.00;;;25.70
44429;BMP180;30134;47.866;-4.222;2022-10-31T14:25:52;100335.00;;;25.80
44429;BMP180;30134;47.866;-4.222;2022-10-31T14:28:32;100322.00;;;25.80
44429;BMP180;30134;47.866;-4.222;2022-10-31T14:30:59;100337.00;;;25.80
44429;BMP180;30134;47.866;-4.222;2022-10-31T14:33:29;100346.00;;;25.80
44429;BMP180;30134;47.866;-4.222;2022-10-31T14:36:22;100347.00;;;25.90
44429;BMP180;30134;47.866;-4.222;2022-10-31T14:40:23;100333.00;;;25.90
44429;BMP180;30134;47.866;-4.222;2022-10-31T14:42:37;100339.00;;;25.90
44429;BMP180;30134;47.866;-4.222;2022-10-31T14:48:29;100326.00;;;25.90
44429;BMP180;30134;47.866;-4.222;2022-10-31T14:51:02;100320.00;;;26.00
44429;BMP180;30134;47.866;-4.222;2022-10-31T14:53:34;100320.00;;;26.00
44429;BMP180;30134;47.866;-4.222;2022-10-31T14:56:02;100321.00;;;26.00
44429;BMP180;30134;47.866;-4.222;2022-10-31T14:58:43;100314.00;;;26.00
44429;BMP180;30134;47.866;-4.222;2022-10-31T15:01:31;100322.00;;;26.00
44429;BMP180;30134;47.866;-4.222;2022-10-31T15:04:13;100332.00;;;26.00
44429;BMP180;30134;47.866;-4.222;2022-10-31T15:06:47;100319.00;;;26.00
44429;BMP180;30134;47.866;-4.222;2022-10-31T15:09:27;100314.00;;;26.10
44429;BMP180;30134;47.866;-4.222;2022-10-31T15:11:53;100308.00;;;26.10
44429;BMP180;30134;47.866;-4.222;2022-10-31T15:14:29;100309.00;;;26.10
44429;BMP180;30134;47.866;-4.222;2022-10-31T15:17:02;100302.00;;;26.10
44429;BMP180;30134;47.866;-4.222;2022-10-31T15:19:32;100313.00;;;26.10
44429;BMP180;30134;47.866;-4.222;2022-10-31T15:21:58;100306.00;;;26.10
44429;BMP180;30134;47.866;-4.222;2022-10-31T15:24:38;100310.00;;;26.20
44429;BMP180;30134;47.866;-4.222;2022-10-31T15:27:15;100307.00;;;26.20
44429;BMP180;30134;47.866;-4.222;2022-10-31T15:29:51;100312.00;;;26.20
44429;BMP180;30134;47.866;-4.222;2022-10-31T15:32:22;100300.00;;;26.20
44429;BMP180;30134;47.866;-4.222;2022-10-31T15:34:49;100291.00;;;26.20
44429;BMP180;30134;47.866;-4.222;2022-10-31T15:37:19;100290.00;;;26.20
44429;BMP180;30134;47.866;-4.222;2022-10-31T15:39:48;100288.00;;;26.20
44429;BMP180;30134;47.866;-4.222;2022-10-31T15:45:02;100269.00;;;26.30
44429;BMP180;30134;47.866;-4.222;2022-10-31T15:47:31;100267.00;;;26.30
44429;BMP180;30134;47.866;-4.222;2022-10-31T15:50:00;100266.00;;;26.30
44429;BMP180;30134;47.866;-4.222;2022-10-31T15:52:43;100279.00;;;26.30
44429;BMP180;30134;47.866;-4.222;2022-10-31T15:55:24;100279.00;;;26.30
44429;BMP180;30134;47.866;-4.222;2022-10-31T15:57:53;100275.00;;;26.30
44429;BMP180;30134;47.866;-4.222;2022-10-31T16:00:41;100273.00;;;26.30